^^
Saratoga-Weather Station Historical Data
Daily Summary for February 25, 2021 Units:  English    Metric   Both
Daily Weekly Monthly Yearly Custom
  High: Low: Average:
Temperature: 58.5 °F 45 °F 49.5 °F
Dew Point: 47.3 °F 42.1 °F 44.4 °F
Humidity: 93% 58% 84%
Wind Speed: 16.1mph 0mph 3.8mph
Wind Gust: 21mph - -
Wind- - WSW
Pressure: 30.1 in 29.9 in -
Precipitation: 0.31 in    
Historical Graphs
 
 
Tabular Data for February 25, 2021
Time Temperature Dew Point Pressure Wind Wind Speed Wind Gust Humidity Rainfall Rate (Hourly) solar
00:00 45.3 °F 42.6 °F 29.9 in WNW 0.9 mph 3 mph 90% 0 in 0 W/m2
00:05 45.3 °F 42.3 °F 29.9 in Calm   6 mph 89% 0 in 0 W/m2
00:10 45.3 °F 42.6 °F 29.9 in NW 0.9 mph 1 mph 90% 0 in 0 W/m2
00:15 45.3 °F 42.6 °F 29.9 in NE 2.9 mph 4 mph 90% 0 in 0 W/m2
00:20 45.1 °F 42.1 °F 29.9 in NW 0.9 mph 8 mph 89% 0 in 0 W/m2
00:25 45.3 °F 42.6 °F 29.9 in Calm   1 mph 90% 0 in 0 W/m2
00:30 45.1 °F 42.4 °F 29.9 in NE 2 mph 8 mph 90% 0 in 0 W/m2
00:35 45.3 °F 42.6 °F 29.9 in NNE 4 mph 4 mph 90% 0 in 0 W/m2
00:40 45.3 °F 42.6 °F 29.9 in Calm   5 mph 90% 0 in 0 W/m2
00:45 45.3 °F 42.3 °F 29.9 in East 2.9 mph 3 mph 89% 0 in 0 W/m2
00:50 45.3 °F 42.3 °F 29.9 in ENE 0.9 mph 2 mph 89% 0 in 0 W/m2
00:55 45.3 °F 42.3 °F 29.9 in Calm   2 mph 89% 0 in 0 W/m2
01:00 45.3 °F 42.6 °F 29.9 in Calm     90% 0 in 0 W/m2
01:05 45.3 °F 42.6 °F 29.9 in WNW 0.9 mph 3 mph 90% 0 in 0 W/m2
01:10 45.3 °F 42.6 °F 29.9 in NW 0.9 mph 3 mph 90% 0 in 0 W/m2
01:15 45.3 °F 42.6 °F 29.9 in North 0.9 mph 6 mph 90% 0 in 0 W/m2
01:20 45.5 °F 42.8 °F 29.9 in North 0.9 mph 2 mph 90% 0 in 0 W/m2
01:25 45.7 °F 43 °F 29.9 in WNW 2.9 mph 7 mph 90% 0 in 0 W/m2
01:30 45.7 °F 43 °F 29.9 in NNW 0.9 mph 7 mph 90% 0 in 0 W/m2
01:35 45.7 °F 43 °F 29.9 in WSW 0.9 mph 2 mph 90% 0 in 0 W/m2
01:40 45.9 °F 43.2 °F 29.9 in SE 2.9 mph 6 mph 90% 0 in 0 W/m2
01:45 45.9 °F 43.2 °F 29.9 in Calm   2 mph 90% 0 in 0 W/m2
01:50 45.9 °F 43.2 °F 29.9 in SSE 0.9 mph 2 mph 90% 0 in 0 W/m2
01:55 45.9 °F 43.2 °F 29.9 in WNW 2.9 mph 4 mph 90% 0 in 0 W/m2
02:00 45.9 °F 42.8 °F 29.9 in Calm   2 mph 89% 0 in 0 W/m2
02:05 45.9 °F 42.8 °F 29.9 in West 0.9 mph 9 mph 89% 0 in 0 W/m2
02:10 45.9 °F 42.8 °F 29.9 in ENE 2.9 mph 3 mph 89% 0 in 0 W/m2
02:15 46 °F 43 °F 29.9 in West 8.9 mph 9 mph 89% 0 in 0 W/m2
02:20 46 °F 42.6 °F 29.9 in North 0.9 mph 2 mph 88% 0 in 0 W/m2
02:25 46 °F 42.6 °F 29.9 in WSW 0.9 mph 6 mph 88% 0 in 0 W/m2
02:30 46 °F 42.6 °F 29.9 in WNW 2.9 mph 4 mph 88% 0 in 0 W/m2
02:35 46 °F 42.6 °F 29.9 in West 6 mph 6 mph 88% 0 in 0 W/m2
02:40 46 °F 42.6 °F 29.9 in NE 2.9 mph 3 mph 88% 0 in 0 W/m2
02:45 46 °F 42.6 °F 29.9 in NW 0.9 mph 4 mph 88% 0 in 0 W/m2
02:50 46.2 °F 42.8 °F 29.9 in NNW 2.9 mph 7 mph 88% 0 in 0 W/m2
02:55 46.2 °F 42.8 °F 29.9 in North 0.9 mph 4 mph 88% 0 in 0 W/m2
03:00 46.2 °F 42.8 °F 29.9 in ENE 6 mph 8 mph 88% 0 in 0 W/m2
03:05 46.2 °F 42.8 °F 29.9 in NE 2 mph 5 mph 88% 0 in 0 W/m2
03:10 46.2 °F 42.6 °F 29.9 in NW 6 mph 8 mph 87% 0 in 0 W/m2
03:15 46.2 °F 42.6 °F 29.9 in West 2 mph 3 mph 87% 0 in 0 W/m2
03:20 46.2 °F 42.6 °F 29.9 in West 4 mph 8 mph 87% 0 in 0 W/m2
03:25 46.2 °F 42.6 °F 29.9 in NW 0.9 mph 6 mph 87% 0 in 0 W/m2
03:30 46.2 °F 42.6 °F 29.9 in SE 0.9 mph 3 mph 87% 0 in 0 W/m2
03:35 46.4 °F 42.8 °F 29.9 in NW 2.9 mph 4 mph 87% 0 in 0 W/m2
03:40 46.4 °F 42.8 °F 29.9 in NNW 0.9 mph 7 mph 87% 0 in 0 W/m2
03:45 46.4 °F 42.8 °F 29.9 in NW 0.9 mph 3 mph 87% 0 in 0 W/m2
03:50 46.4 °F 42.4 °F 29.9 in ENE 2 mph 4 mph 86% 0 in 0 W/m2
03:55 46.2 °F 42.3 °F 29.9 in SSE 2 mph 6 mph 86% 0 in 0 W/m2
04:00 46.2 °F 42.6 °F 29.9 in SW 2 mph 5 mph 87% 0 in 0 W/m2
04:05 46.2 °F 42.6 °F 29.9 in WNW 0.9 mph 5 mph 87% 0 in 0 W/m2
04:10 46 °F 42.4 °F 29.9 in WNW 6.9 mph 9 mph 87% 0 in 0 W/m2
04:15 46.2 °F 42.6 °F 29.9 in NW 4 mph 5 mph 87% 0 in 0 W/m2
04:20 46 °F 42.4 °F 29.9 in WNW 6.9 mph 10 mph 87% 0 in 0 W/m2
04:25 46 °F 42.4 °F 29.9 in WNW 2.9 mph 7 mph 87% 0 in 0 W/m2
04:30 46 °F 42.4 °F 29.9 in WNW 2.9 mph 8 mph 87% 0 in 0 W/m2
04:35 46 °F 42.4 °F 29.9 in SW 8.1 mph 10 mph 87% 0 in 0 W/m2
04:40 45.9 °F 42.4 °F 29.9 in WNW 6.9 mph 8 mph 88% 0.01 in 0 W/m2
04:45 45.7 °F 42.6 °F 29.9 in NW 2 mph 5 mph 89% 0.01 in 0 W/m2
04:50 45.7 °F 42.6 °F 29.9 in SSW 4 mph 5 mph 89% 0.01 in 0 W/m2
04:55 45.5 °F 42.4 °F 29.9 in NNW 2.9 mph 3 mph 89% 0.01 in 0 W/m2
05:00 45.5 °F 42.8 °F 29.9 in NNW 2 mph 5 mph 90% 0.02 in 0 W/m2
05:05 45.5 °F 42.8 °F 29.9 in SSW 2 mph 4 mph 90% 0.02 in 0 W/m2
05:10 45.5 °F 42.8 °F 29.9 in WNW 2 mph 7 mph 90% 0.02 in 0 W/m2
05:15 45.5 °F 42.8 °F 29.9 in NNW 4 mph 5 mph 90% 0.02 in 0 W/m2
05:20 45.5 °F 42.8 °F 29.9 in WNW 4 mph 6 mph 90% 0.02 in 0 W/m2
05:25 45.5 °F 42.8 °F 29.9 in North 0.9 mph 4 mph 90% 0.02 in 0 W/m2
05:30 45.5 °F 42.8 °F 29.9 in NW 2 mph 7 mph 90% 0.02 in 0 W/m2
05:35 45.5 °F 42.8 °F 29.9 in North 2.9 mph 10 mph 90% 0.02 in 0 W/m2
05:40 45.3 °F 42.6 °F 29.9 in Calm   11 mph 90% 0.01 in 0 W/m2
05:45 45.3 °F 42.6 °F 29.9 in WNW 4 mph 7 mph 90% 0.01 in 0 W/m2
05:50 45.3 °F 42.6 °F 29.9 in North 2 mph 10 mph 90% 0.01 in 0 W/m2
05:55 45.3 °F 42.6 °F 29.9 in West 2 mph 7 mph 90% 0.01 in 0 W/m2
06:00 45.1 °F 42.4 °F 29.9 in WSW 2.9 mph 10 mph 90% 0 in 0 W/m2
06:05 45.1 °F 42.4 °F 29.9 in NW 4.9 mph 8 mph 90% 0 in 0 W/m2
06:10 45.1 °F 42.4 °F 29.9 in North 0.9 mph 13 mph 90% 0 in 7 W/m2
06:15 45.1 °F 42.4 °F 29.9 in NNE 4 mph 8 mph 90% 0 in 9 W/m2
06:21 45.1 °F 42.4 °F 29.9 in West 2 mph 9 mph 90% 0 in 5 W/m2
06:26 45.1 °F 42.6 °F 29.9 in NW 4 mph 6 mph 91% 0 in 5 W/m2
06:31 45 °F 42.4 °F 29.9 in NW 4 mph 5 mph 91% 0 in 5 W/m2
06:36 45 °F 42.4 °F 29.9 in South 0.9 mph 9 mph 91% 0 in 9 W/m2
06:41 45.1 °F 42.6 °F 29.9 in West 4 mph 11 mph 91% 0 in 14 W/m2
06:46 45.1 °F 42.6 °F 29.9 in NW 2.9 mph 8 mph 91% 0.01 in 5 W/m2
06:51 45.1 °F 42.4 °F 29.9 in West 2.9 mph 9 mph 90% 0.01 in 18 W/m2
06:56 45.1 °F 42.6 °F 29.9 in West 8.9 mph 13 mph 91% 0.01 in 25 W/m2
07:01 45 °F 42.4 °F 29.9 in West 6.9 mph 7 mph 91% 0.02 in 12 W/m2
07:06 45 °F 42.4 °F 29.9 in NW 2.9 mph 13 mph 91% 0.02 in 12 W/m2
07:11 45 °F 42.4 °F 29.9 in NNW 2.9 mph 8 mph 91% 0.02 in 11 W/m2
07:16 45 °F 42.4 °F 30 in WNW 8.9 mph 17 mph 91% 0.02 in 40 W/m2
07:21 45 °F 42.4 °F 30 in West 2 mph 11 mph 91% 0.02 in 46 W/m2
07:26 45.1 °F 42.6 °F 30 in NW 2.9 mph 17 mph 91% 0.02 in 53 W/m2
07:31 45.1 °F 42.6 °F 30 in WNW 0.9 mph 10 mph 91% 0.02 in 77 W/m2
07:36 45.1 °F 42.6 °F 30 in West 2.9 mph 7 mph 91% 0.02 in 54 W/m2
07:41 45.3 °F 42.8 °F 30 in SW 8.1 mph 10 mph 91% 0.02 in 67 W/m2
07:46 45.1 °F 42.6 °F 30 in West 4 mph 9 mph 91% 0.03 in 32 W/m2
07:51 45.1 °F 42.6 °F 30 in WSW 4.9 mph 10 mph 91% 0.03 in 35 W/m2
07:56 45.1 °F 42.6 °F 30 in West 6 mph 8 mph 91% 0.04 in 26 W/m2
08:01 45.1 °F 43 °F 30 in WNW 0.9 mph 10 mph 92% 0.04 in 47 W/m2
08:06 45.1 °F 43 °F 30 in WSW 4 mph 8 mph 92% 0.04 in 37 W/m2
08:11 45.1 °F 43 °F 30 in NW 2 mph 15 mph 92% 0.04 in 37 W/m2
08:16 45.1 °F 43 °F 30 in West 6.9 mph 8 mph 92% 0.04 in 44 W/m2
08:21 45.1 °F 43 °F 30 in WSW 2 mph 16 mph 92% 0.04 in 37 W/m2
08:26 45.1 °F 42.6 °F 30 in West 8.9 mph 14 mph 91% 0.04 in 30 W/m2
08:31 45.1 °F 42.6 °F 30 in WSW 4.9 mph 16 mph 91% 0.04 in 130 W/m2
08:36 45.3 °F 42.8 °F 30 in NNW 2 mph 11 mph 91% 0.04 in 193 W/m2
08:41 45.5 °F 43 °F 30 in NW 8.1 mph 12 mph 91% 0.05 in 69 W/m2
08:46 45.5 °F 43 °F 30 in North 4 mph 11 mph 91% 0.04 in 79 W/m2
08:51 45.3 °F 43.2 °F 30 in WSW 6.9 mph 7 mph 92% 0.05 in 74 W/m2
08:56 45.3 °F 43.2 °F 30 in SW 2.9 mph 6 mph 92% 0.05 in 60 W/m2
09:01 45.3 °F 43.2 °F 30 in West 6 mph 6 mph 92% 0.04 in 90 W/m2
09:06 45.7 °F 43.5 °F 30 in West 8.1 mph 9 mph 92% 0.04 in 139 W/m2
09:11 45.9 °F 43.7 °F 30 in West 2.9 mph 12 mph 92% 0.04 in 132 W/m2
09:16 45.9 °F 43.7 °F 30 in WNW 4 mph 9 mph 92% 0.05 in 135 W/m2
09:21 46 °F 43.9 °F 30 in ENE 2.9 mph 12 mph 92% 0.06 in 100 W/m2
09:26 46 °F 43.9 °F 30 in WNW 2.9 mph 8 mph 92% 0.06 in 70 W/m2
09:31 46 °F 43.9 °F 30 in West 4 mph 8 mph 92% 0.06 in 72 W/m2
09:36 46.2 °F 44.1 °F 30 in West 6.9 mph 9 mph 92% 0.07 in 127 W/m2
09:41 46.2 °F 44.1 °F 30 in West 8.1 mph 16 mph 92% 0.07 in 195 W/m2
09:46 46.4 °F 44.2 °F 30 in WNW 6.9 mph 17 mph 92% 0.07 in 98 W/m2
09:51 46.6 °F 44.4 °F 30 in NW 16.1 mph 16 mph 92% 0.06 in 167 W/m2
09:56 46.8 °F 44.6 °F 30 in West 4 mph 10 mph 92% 0.06 in 299 W/m2
10:01 47.1 °F 45 °F 30 in WSW 8.1 mph 16 mph 92% 0.06 in 114 W/m2
10:06 47.1 °F 44.6 °F 30 in West 6 mph 12 mph 91% 0.06 in 104 W/m2
10:11 47.1 °F 44.6 °F 30 in WSW 4 mph 8 mph 91% 0.05 in 63 W/m2
10:16 47.1 °F 44.6 °F 30 in West 4 mph 10 mph 91% 0.04 in 65 W/m2
10:21 47.1 °F 44.6 °F 30 in NW 4.9 mph 10 mph 91% 0.03 in 93 W/m2
10:26 47.1 °F 44.6 °F 30 in NW 2.9 mph 7 mph 91% 0.03 in 58 W/m2
10:31 47.1 °F 44.6 °F 30 in WNW 4.9 mph 9 mph 91% 0.03 in 93 W/m2
10:36 47.1 °F 44.6 °F 30 in West 11 mph 12 mph 91% 0.02 in 127 W/m2
10:41 47.5 °F 45 °F 30 in WNW 6.9 mph 7 mph 91% 0.02 in 139 W/m2
10:46 47.7 °F 45 °F 30 in WNW 2 mph 13 mph 90% 0.02 in 218 W/m2
10:51 48 °F 45.5 °F 30 in West 6 mph 9 mph 91% 0.02 in 248 W/m2
10:56 48.4 °F 45.5 °F 30 in SSE 2 mph 9 mph 90% 0.02 in 262 W/m2
11:01 48.6 °F 45.7 °F 30 in NNW 4.9 mph 13 mph 90% 0.02 in 338 W/m2
11:06 48.9 °F 46 °F 30 in WNW 2.9 mph 11 mph 90% 0.02 in 346 W/m2
11:11 49.3 °F 46.2 °F 30 in NW 2.9 mph 8 mph 89% 0.02 in 346 W/m2
11:16 49.8 °F 46.8 °F 30 in West 6 mph 8 mph 89% 0.02 in 290 W/m2
11:21 50.2 °F 46.4 °F 30 in West 6.9 mph 14 mph 87% 0.02 in 301 W/m2
11:26 50.7 °F 46.9 °F 30 in NNW 6 mph 6 mph 87% 0.01 in 209 W/m2
11:31 51.1 °F 46.8 °F 30 in NW 2.9 mph 13 mph 85% 0.01 in 838 W/m2
11:36 51.6 °F 47.3 °F 30 in West 6 mph 9 mph 85% 0 in 345 W/m2
11:41 52.2 °F 47.1 °F 30.1 in WSW 2 mph 21 mph 83% 0 in 962 W/m2
11:46 51.8 °F 46.4 °F 30.1 in WSW 2.9 mph 14 mph 82% 0 in 276 W/m2
11:51 51.4 °F 46.2 °F 30.1 in NNE 2.9 mph 21 mph 82% 0 in 362 W/m2
11:56 51.4 °F 46.2 °F 30 in NNW 8.9 mph 9 mph 82% 0 in 343 W/m2
12:01 51.6 °F 46.2 °F 30.1 in WNW 4 mph 11 mph 82% 0 in 754 W/m2
12:06 52.2 °F 46.8 °F 30.1 in WSW 4.9 mph 10 mph 82% 0 in 508 W/m2
12:11 52.5 °F 46.6 °F 30.1 in WNW 8.1 mph 12 mph 80% 0 in 826 W/m2
12:16 52.9 °F 46.6 °F 30.1 in NW 8.1 mph 10 mph 79% 0 in 281 W/m2
12:21 52.9 °F 45.9 °F 30.1 in NW 4.9 mph 12 mph 77% 0 in 294 W/m2
12:26 52.9 °F 46.2 °F 30.1 in WNW 4.9 mph 10 mph 78% 0 in 322 W/m2
12:31 53.2 °F 46.6 °F 30.1 in West 6 mph 7 mph 78% 0 in 881 W/m2
12:36 53.8 °F 46.8 °F 30.1 in WSW 8.9 mph 11 mph 77% 0 in 381 W/m2
12:41 54.1 °F 46.4 °F 30.1 in North 2.9 mph 10 mph 75% 0 in 898 W/m2
12:46 54.5 °F 45.3 °F 30.1 in WNW 14.1 mph 19 mph 71% 0 in 515 W/m2
12:51 54.9 °F 46.8 °F 30.1 in WNW 15 mph 15 mph 74% 0 in 1055 W/m2
12:56 55.2 °F 46 °F 30.1 in West 4 mph 19 mph 71% 0 in 1055 W/m2
13:01 55.2 °F 46 °F 30.1 in NNW 4 mph 8 mph 71% 0 in 860 W/m2
13:06 55.6 °F 46 °F 30.1 in NW 15 mph 15 mph 70% 0 in 1034 W/m2
13:11 55.6 °F 45.1 °F 30.1 in NNE 4 mph 10 mph 68% 0 in 251 W/m2
13:16 55 °F 45.1 °F 30.1 in North 2 mph 18 mph 69% 0 in 329 W/m2
13:22 55.2 °F 44.8 °F 30.1 in WNW 6 mph 16 mph 68% 0 in 969 W/m2
13:27 55.8 °F 45.3 °F 30.1 in West 8.1 mph 16 mph 68% 0 in 364 W/m2
13:32 55.8 °F 44.2 °F 30.1 in NW 2 mph 15 mph 65% 0 in 404 W/m2
13:37 55.8 °F 44.2 °F 30.1 in WNW 10.1 mph 21 mph 65% 0 in 1030 W/m2
13:42 56.1 °F 45.3 °F 30.1 in West 6.9 mph 13 mph 67% 0 in 1018 W/m2
13:47 56.8 °F 45.7 °F 30.1 in WNW 6.9 mph 21 mph 66% 0 in 983 W/m2
13:52 57.2 °F 43.5 °F 30.1 in West 10.1 mph 18 mph 60% 0 in 1086 W/m2
13:57 56.8 °F 43.5 °F 30.1 in WNW 2.9 mph 10 mph 61% 0 in 234 W/m2
14:02 56.7 °F 42.4 °F 30.1 in WNW 6.9 mph 17 mph 59% 0 in 1034 W/m2
14:07 57 °F 42.8 °F 30.1 in NW 4 mph 14 mph 59% 0 in 884 W/m2
14:12 57.2 °F 42.6 °F 30.1 in WNW 8.1 mph 11 mph 58% 0 in 1065 W/m2
14:17 57.6 °F 43.3 °F 30.1 in SW 2 mph 12 mph 59% 0 in 1151 W/m2
14:22 57.7 °F 43.9 °F 30.1 in SW 2 mph 10 mph 60% 0 in 341 W/m2
14:27 57.7 °F 44.4 °F 30.1 in West 2 mph 8 mph 61% 0 in 341 W/m2
14:32 58.1 °F 44.8 °F 30.1 in SW 4.9 mph 11 mph 61% 0 in 946 W/m2
14:37 57.9 °F 44.1 °F 30.1 in SSE 8.1 mph 16 mph 60% 0 in 800 W/m2
14:42 57.6 °F 44.2 °F 30 in WNW 4 mph 13 mph 61% 0 in 236 W/m2
14:47 57 °F 44.1 °F 30 in WNW 2.9 mph 16 mph 62% 0 in 323 W/m2
14:52 57.2 °F 44.2 °F 30 in West 6 mph 15 mph 62% 0 in 323 W/m2
14:57 57 °F 43.7 °F 30 in West 8.9 mph 20 mph 61% 0 in 512 W/m2
15:02 57.4 °F 45 °F 30 in WNW 4.9 mph 15 mph 63% 0 in 501 W/m2
15:07 57.6 °F 44.2 °F 30.1 in West 8.1 mph 20 mph 61% 0 in 1176 W/m2
15:12 57.7 °F 43.9 °F 30 in North 8.9 mph 12 mph 60% 0 in 1176 W/m2
15:17 57.7 °F 44.4 °F 30 in WNW 4 mph 14 mph 61% 0 in 466 W/m2
15:22 57.4 °F 44.1 °F 30 in WSW 6.9 mph 10 mph 61% 0 in 223 W/m2
15:27 57 °F 44.1 °F 30 in NNW 2 mph 10 mph 62% 0 in 387 W/m2
15:32 57.4 °F 44.4 °F 30 in WSW 8.1 mph 8 mph 62% 0 in 805 W/m2
15:37 57.9 °F 45 °F 30 in West 2 mph 9 mph 62% 0 in 316 W/m2
15:42 57.6 °F 43.7 °F 30 in WSW 4.9 mph 11 mph 60% 0 in 234 W/m2
15:47 57.6 °F 43.7 °F 30 in NNW 8.1 mph 11 mph 60% 0 in 809 W/m2
15:52 58.1 °F 45.1 °F 30 in NW 8.9 mph 9 mph 62% 0 in 684 W/m2
15:57 58.5 °F 43.7 °F 30 in West 8.1 mph 10 mph 58% 0 in 682 W/m2
16:02 58.5 °F 44.2 °F 30 in NNW 8.1 mph 12 mph 59% 0 in 216 W/m2
16:07 57.9 °F 43.7 °F 30 in WNW 2.9 mph 12 mph 59% 0 in 160 W/m2
16:12 57.6 °F 43.7 °F 30 in NW 4.9 mph 10 mph 60% 0 in 141 W/m2
16:17 56.8 °F 43.9 °F 30 in WNW 2.9 mph 11 mph 62% 0 in 76 W/m2
16:22 56.1 °F 44.6 °F 30 in WNW 4.9 mph 8 mph 65% 0 in 86 W/m2
16:27 55.6 °F 45.1 °F 30 in NW 2.9 mph 7 mph 68% 0 in 195 W/m2
16:32 55 °F 45.9 °F 30 in West 8.1 mph 8 mph 71% 0 in 255 W/m2
16:37 54.5 °F 45.3 °F 30 in WSW 4.9 mph 12 mph 71% 0 in 359 W/m2
16:42 54.1 °F 46 °F 30 in West 6 mph 9 mph 74% 0 in 234 W/m2
16:47 53.8 °F 45.7 °F 30 in NW 4 mph 12 mph 74% 0 in 142 W/m2
16:52 53.4 °F 46 °F 30 in WNW 8.1 mph 12 mph 76% 0 in 86 W/m2
16:57 53.1 °F 46 °F 30.1 in WNW 8.9 mph 9 mph 77% 0 in 97 W/m2
17:02 52.5 °F 46.2 °F 30.1 in West 10.1 mph 16 mph 79% 0.01 in 67 W/m2
17:07 52 °F 46 °F 30.1 in WNW 8.1 mph 15 mph 80% 0.01 in 81 W/m2
17:12 51.6 °F 46 °F 30.1 in SW 2.9 mph 14 mph 81% 0.01 in 90 W/m2
17:17 51.4 °F 46.2 °F 30 in NW 2 mph 10 mph 82% 0.01 in 221 W/m2
17:22 51.4 °F 45.9 °F 30 in NW 2 mph 14 mph 81% 0.01 in 288 W/m2
17:27 52 °F 46 °F 30 in NNE 2 mph 7 mph 80% 0.01 in 179 W/m2
17:32 52.3 °F 46 °F 30 in Calm   9 mph 79% 0.01 in 239 W/m2
17:37 52.7 °F 46 °F 30 in NNW 6 mph 10 mph 78% 0.01 in 279 W/m2
17:42 53.2 °F 46.6 °F 30 in East 4 mph 4 mph 78% 0.01 in 276 W/m2
17:47 53.8 °F 46.8 °F 30 in WNW 2 mph 10 mph 77% 0.01 in 216 W/m2
17:52 54.5 °F 46.8 °F 30 in NW 0.9 mph 4 mph 75% 0.01 in 554 W/m2
17:57 55.4 °F 46.9 °F 30 in WNW 6.9 mph 9 mph 73% 0.01 in 527 W/m2
18:02 56.1 °F 46.8 °F 30 in WNW 4.9 mph 8 mph 71% 0 in 304 W/m2
18:07 56.7 °F 46.2 °F 30 in SW 2.9 mph 11 mph 68% 0 in 171 W/m2
18:12 56.8 °F 46.4 °F 30 in SE 2 mph 4 mph 68% 0 in 207 W/m2
18:17 56.7 °F 45.9 °F 30 in East 0.9 mph 12 mph 67% 0 in 114 W/m2
18:22 56.1 °F 45.7 °F 30 in North 2.9 mph 8 mph 68% 0 in 74 W/m2
18:27 55.9 °F 45.5 °F 30 in SE 2.9 mph 12 mph 68% 0 in 62 W/m2
18:32 55.8 °F 45.7 °F 30 in West 6.9 mph 10 mph 69% 0 in 18 W/m2
18:37 53.6 °F 46.9 °F 30.1 in West 10.1 mph 19 mph 78% 0.03 in 47 W/m2
18:42 51.4 °F 46.2 °F 30 in West 4 mph 8 mph 82% 0.03 in 76 W/m2
18:47 50.5 °F 45.9 °F 30 in NW 4.9 mph 7 mph 84% 0.04 in 105 W/m2
18:52 50.2 °F 45.9 °F 30 in NW 6 mph 8 mph 85% 0.04 in 172 W/m2
18:57 50.4 °F 46.4 °F 30 in WSW 4 mph 6 mph 86% 0.04 in 192 W/m2
19:02 50.5 °F 46.2 °F 30 in ENE 2 mph 2 mph 85% 0.04 in 148 W/m2
19:07 50.7 °F 46 °F 30 in WSW 2 mph 5 mph 84% 0.04 in 127 W/m2
19:12 51.1 °F 46.8 °F 30 in Calm   2 mph 85% 0.04 in 97 W/m2
19:17 51.1 °F 46.8 °F 30 in NW 0.9 mph 6 mph 85% 0.04 in 70 W/m2
19:22 50.9 °F 46.6 °F 30 in NW 2.9 mph 5 mph 85% 0.04 in 123 W/m2
19:27 50.9 °F 46.6 °F 30 in West 0.9 mph 4 mph 85% 0.04 in 53 W/m2
19:32 50.9 °F 46.9 °F 30 in West 2.9 mph 5 mph 86% 0.04 in 42 W/m2
19:37 50.9 °F 46.9 °F 30 in WNW 2.9 mph 3 mph 86% 0.01 in 100 W/m2
19:42 51.1 °F 47.1 °F 30 in WSW 2 mph 4 mph 86% 0.01 in 35 W/m2
19:47 51.3 °F 47.3 °F 30 in WNW 0.9 mph 2 mph 86% 0 in 32 W/m2
19:52 51.3 °F 47.3 °F 30 in Calm   2 mph 86% 0 in 18 W/m2
19:57 51.3 °F 47.3 °F 30 in Calm   2 mph 86% 0 in 28 W/m2
20:02 51.1 °F 47.3 °F 30 in Calm   2 mph 87% 0 in 35 W/m2
20:07 51.1 °F 47.3 °F 30 in West 0.9 mph 3 mph 87% 0 in 33 W/m2
20:12 51.1 °F 47.3 °F 30 in NW 2 mph 3 mph 87% 0 in 11 W/m2
20:17 51.1 °F 47.3 °F 30.1 in West 6 mph 7 mph 87% 0 in 0 W/m2
20:22 50.7 °F 46.9 °F 30.1 in WSW 4 mph 15 mph 87% 0.02 in 5 W/m2
20:27 50 °F 46.2 °F 30.1 in WSW 4 mph 9 mph 87% 0.03 in 5 W/m2
20:32 49.5 °F 46 °F 30.1 in West 4 mph 14 mph 88% 0.05 in 5 W/m2
20:37 48.9 °F 45.9 °F 30.1 in WNW 4.9 mph 12 mph 89% 0.06 in 7 W/m2
20:42 48.7 °F 45.7 °F 30.1 in West 2 mph 6 mph 89% 0.06 in 5 W/m2
20:47 48.7 °F 45.9 °F 30.1 in West 4 mph 9 mph 90% 0.07 in 7 W/m2
20:52 48.6 °F 45.7 °F 30.1 in WSW 4 mph 4 mph 90% 0.08 in 7 W/m2
20:57 48.6 °F 45.7 °F 30.1 in South 0.9 mph 9 mph 90% 0.08 in 7 W/m2
21:02 48.6 °F 46 °F 30.1 in NNW 2 mph 2 mph 91% 0.08 in 5 W/m2
21:07 48.7 °F 46.2 °F 30.1 in WNW 2.9 mph 4 mph 91% 0.09 in 0 W/m2
21:12 48.9 °F 46 °F 30.1 in WNW 2.9 mph 7 mph 90% 0.09 in 0 W/m2
21:17 48.9 °F 46 °F 30.1 in WSW 6 mph 8 mph 90% 0.09 in 0 W/m2
21:22 49.3 °F 46.4 °F 30.1 in West 4 mph 4 mph 90% 0.06 in 0 W/m2
21:27 49.3 °F 46.2 °F 30.1 in NW 10.1 mph 10 mph 89% 0.06 in 0 W/m2
21:32 49.5 °F 46.4 °F 30.1 in NW 2 mph 2 mph 89% 0.04 in 0 W/m2
21:37 49.6 °F 46.2 °F 30.1 in SW 2.9 mph 9 mph 88% 0.03 in 0 W/m2
21:42 49.6 °F 46.2 °F 30.1 in West 0.9 mph 4 mph 88% 0.02 in 0 W/m2
21:47 49.6 °F 46.2 °F 30.1 in Calm     88% 0.02 in 0 W/m2
21:52 49.6 °F 46.2 °F 30.1 in NNE 2 mph 2 mph 88% 0.01 in 0 W/m2
21:57 49.5 °F 46.4 °F 30.1 in NE 0.9 mph 2 mph 89% 0.01 in 0 W/m2
22:02 49.3 °F 46.4 °F 30.1 in NE 0.9 mph 2 mph 90% 0.01 in 0 W/m2
22:07 48.9 °F 46 °F 30.1 in NE 0.9 mph 2 mph 90% 0 in 0 W/m2
22:12 48.9 °F 46.4 °F 30.1 in Calm   1 mph 91% 0 in 0 W/m2
22:17 48.7 °F 46.6 °F 30.1 in ESE 0.9 mph 3 mph 92% 0 in 0 W/m2
22:22 48.6 °F 46 °F 30.1 in East 0.9 mph 2 mph 91% 0 in 0 W/m2
22:27 48.6 °F 46 °F 30.1 in Calm   1 mph 91% 0 in 0 W/m2
22:32 48.6 °F 46.4 °F 30.1 in NE 0.9 mph 1 mph 92% 0 in 0 W/m2
22:37 48.6 °F 46.4 °F 30.1 in Calm   3 mph 92% 0 in 0 W/m2
22:42 48.4 °F 46.2 °F 30.1 in SE 0.9 mph 2 mph 92% 0 in 0 W/m2
22:47 48.4 °F 46.2 °F 30.1 in Calm   3 mph 92% 0 in 0 W/m2
22:52 48.2 °F 46 °F 30 in Calm   1 mph 92% 0 in 0 W/m2
22:57 48.2 °F 46 °F 30.1 in Calm   1 mph 92% 0 in 0 W/m2
23:02 48 °F 45.9 °F 30 in Calm   1 mph 92% 0 in 0 W/m2
23:08 47.8 °F 45.7 °F 30 in Calm     92% 0 in 0 W/m2
23:13 47.8 °F 45.7 °F 30 in Calm   1 mph 92% 0 in 0 W/m2
23:18 47.7 °F 45.5 °F 30 in Calm   1 mph 92% 0 in 0 W/m2
23:23 47.7 °F 45.7 °F 30 in Calm   1 mph 93% 0 in 0 W/m2
23:28 47.7 °F 45.7 °F 30.1 in West 6 mph 6 mph 93% 0 in 0 W/m2
23:33 48 °F 46 °F 30.1 in WSW 4 mph 9 mph 93% 0 in 0 W/m2
23:38 48.4 °F 46.2 °F 30.1 in WNW 2 mph 8 mph 92% 0 in 0 W/m2
23:43 48.6 °F 46 °F 30.1 in West 8.9 mph 9 mph 91% 0 in 0 W/m2
23:48 48.6 °F 46 °F 30.1 in WNW 0.9 mph 6 mph 91% 0 in 0 W/m2
23:53 48.6 °F 46 °F 30.1 in West 2 mph 4 mph 91% 0 in 0 W/m2
23:58 48.4 °F 45.9 °F 30.1 in SW 2 mph 6 mph 91% 0 in 0 W/m2
Juneau County Weather
Compliments of Weather Underground - 2 mb